sensor_id;sensor_type;location;lat;lon;timestamp;P1;durP1;ratioP1;P2;durP2;ratioP2
13432;SDS011;6789;47.678;9.158;2023-03-15T00:14:26;0.23;;;0.13;;
13432;SDS011;6789;47.678;9.158;2023-03-15T00:20:41;0.20;;;0.20;;
13432;SDS011;6789;47.678;9.158;2023-03-15T00:25:33;0.10;;;0.10;;
13432;SDS011;6789;47.678;9.158;2023-03-15T00:30:25;0.10;;;0.10;;
13432;SDS011;6789;47.678;9.158;2023-03-15T00:35:17;0.10;;;0.10;;
13432;SDS011;6789;47.678;9.158;2023-03-15T00:40:09;0.77;;;0.17;;
13432;SDS011;6789;47.678;9.158;2023-03-15T00:45:02;0.10;;;0.07;;
13432;SDS011;6789;47.678;9.158;2023-03-15T00:49:55;0.10;;;0.10;;
13432;SDS011;6789;47.678;9.158;2023-03-15T00:54:50;0.60;;;0.13;;
13432;SDS011;6789;47.678;9.158;2023-03-15T00:59:43;0.93;;;0.30;;
13432;SDS011;6789;47.678;9.158;2023-03-15T01:04:35;1.37;;;0.50;;
13432;SDS011;6789;47.678;9.158;2023-03-15T01:09:26;0.17;;;0.10;;
13432;SDS011;6789;47.678;9.158;2023-03-15T01:14:18;0.47;;;0.20;;
13432;SDS011;6789;47.678;9.158;2023-03-15T01:19:10;1.13;;;0.73;;
13432;SDS011;6789;47.678;9.158;2023-03-15T01:24:03;2.37;;;0.70;;
13432;SDS011;6789;47.678;9.158;2023-03-15T01:28:55;1.70;;;0.70;;
13432;SDS011;6789;47.678;9.158;2023-03-15T01:33:47;0.60;;;0.50;;
13432;SDS011;6789;47.678;9.158;2023-03-15T01:38:39;0.40;;;0.40;;
13432;SDS011;6789;47.678;9.158;2023-03-15T01:43:31;0.67;;;0.60;;
13432;SDS011;6789;47.678;9.158;2023-03-15T01:48:25;1.53;;;0.90;;
13432;SDS011;6789;47.678;9.158;2023-03-15T01:53:26;1.67;;;1.13;;
13432;SDS011;6789;47.678;9.158;2023-03-15T01:58:23;4.07;;;1.00;;
13432;SDS011;6789;47.678;9.158;2023-03-15T02:03:26;2.43;;;0.90;;
13432;SDS011;6789;47.678;9.158;2023-03-15T02:08:45;1.10;;;1.00;;
13432;SDS011;6789;47.678;9.158;2023-03-15T02:14:15;1.77;;;1.13;;
13432;SDS011;6789;47.678;9.158;2023-03-15T02:19:08;0.57;;;0.57;;
13432;SDS011;6789;47.678;9.158;2023-03-15T02:29:41;1.03;;;0.73;;
13432;SDS011;6789;47.678;9.158;2023-03-15T02:34:33;2.40;;;0.70;;
13432;SDS011;6789;47.678;9.158;2023-03-15T02:39:24;1.27;;;0.83;;
13432;SDS011;6789;47.678;9.158;2023-03-15T02:49:14;1.53;;;0.60;;
13432;SDS011;6789;47.678;9.158;2023-03-15T02:54:11;0.60;;;0.60;;
13432;SDS011;6789;47.678;9.158;2023-03-15T02:59:19;3.93;;;1.10;;
13432;SDS011;6789;47.678;9.158;2023-03-15T03:04:27;1.37;;;0.67;;
13432;SDS011;6789;47.678;9.158;2023-03-15T03:09:39;2.90;;;0.97;;
13432;SDS011;6789;47.678;9.158;2023-03-15T03:14:30;2.10;;;0.60;;
13432;SDS011;6789;47.678;9.158;2023-03-15T03:19:22;1.50;;;0.90;;
13432;SDS011;6789;47.678;9.158;2023-03-15T03:24:15;1.43;;;0.83;;
13432;SDS011;6789;47.678;9.158;2023-03-15T03:29:07;0.97;;;0.57;;
13432;SDS011;6789;47.678;9.158;2023-03-15T03:33:59;3.37;;;0.80;;
13432;SDS011;6789;47.678;9.158;2023-03-15T03:38:51;3.00;;;0.80;;
13432;SDS011;6789;47.678;9.158;2023-03-15T03:43:44;4.30;;;0.90;;
13432;SDS011;6789;47.678;9.158;2023-03-15T03:48:35;0.57;;;0.50;;
13432;SDS011;6789;47.678;9.158;2023-03-15T03:53:27;1.63;;;0.93;;
13432;SDS011;6789;47.678;9.158;2023-03-15T03:58:19;0.87;;;0.60;;
13432;SDS011;6789;47.678;9.158;2023-03-15T04:03:12;2.50;;;1.03;;
13432;SDS011;6789;47.678;9.158;2023-03-15T04:08:03;1.50;;;1.17;;
13432;SDS011;6789;47.678;9.158;2023-03-15T04:12:55;1.57;;;0.97;;
13432;SDS011;6789;47.678;9.158;2023-03-15T04:17:48;4.07;;;0.80;;
13432;SDS011;6789;47.678;9.158;2023-03-15T04:22:45;2.30;;;1.00;;
13432;SDS011;6789;47.678;9.158;2023-03-15T04:27:53;1.20;;;1.10;;
13432;SDS011;6789;47.678;9.158;2023-03-15T04:33:03;4.03;;;0.93;;
13432;SDS011;6789;47.678;9.158;2023-03-15T04:37:55;2.40;;;1.30;;
13432;SDS011;6789;47.678;9.158;2023-03-15T04:42:47;4.27;;;1.67;;
13432;SDS011;6789;47.678;9.158;2023-03-15T04:47:47;2.60;;;1.33;;
13432;SDS011;6789;47.678;9.158;2023-03-15T04:52:41;5.57;;;1.30;;
13432;SDS011;6789;47.678;9.158;2023-03-15T04:57:34;3.00;;;1.23;;
13432;SDS011;6789;47.678;9.158;2023-03-15T05:02:27;2.67;;;1.30;;
13432;SDS011;6789;47.678;9.158;2023-03-15T05:07:19;3.70;;;1.13;;
13432;SDS011;6789;47.678;9.158;2023-03-15T05:12:11;2.93;;;1.50;;
13432;SDS011;6789;47.678;9.158;2023-03-15T05:17:03;2.53;;;1.10;;
13432;SDS011;6789;47.678;9.158;2023-03-15T05:21:55;2.97;;;1.77;;
13432;SDS011;6789;47.678;9.158;2023-03-15T05:26:47;3.53;;;1.50;;
13432;SDS011;6789;47.678;9.158;2023-03-15T05:31:39;3.17;;;1.60;;
13432;SDS011;6789;47.678;9.158;2023-03-15T05:36:31;3.33;;;1.57;;
13432;SDS011;6789;47.678;9.158;2023-03-15T05:41:24;6.40;;;1.90;;
13432;SDS011;6789;47.678;9.158;2023-03-15T05:46:16;3.87;;;1.50;;
13432;SDS011;6789;47.678;9.158;2023-03-15T05:51:08;2.90;;;1.43;;
13432;SDS011;6789;47.678;9.158;2023-03-15T05:56:00;2.67;;;1.70;;
13432;SDS011;6789;47.678;9.158;2023-03-15T06:00:52;3.10;;;1.73;;
13432;SDS011;6789;47.678;9.158;2023-03-15T06:05:44;6.23;;;1.80;;
13432;SDS011;6789;47.678;9.158;2023-03-15T06:10:49;5.33;;;1.70;;
13432;SDS011;6789;47.678;9.158;2023-03-15T06:15:56;3.67;;;1.80;;
13432;SDS011;6789;47.678;9.158;2023-03-15T06:20:48;4.47;;;1.63;;
13432;SDS011;6789;47.678;9.158;2023-03-15T06:26:14;6.83;;;4.20;;
13432;SDS011;6789;47.678;9.158;2023-03-15T06:31:12;6.80;;;3.50;;
13432;SDS011;6789;47.678;9.158;2023-03-15T06:36:05;7.50;;;2.00;;
13432;SDS011;6789;47.678;9.158;2023-03-15T06:41:00;8.87;;;3.73;;
13432;SDS011;6789;47.678;9.158;2023-03-15T06:45:51;6.17;;;2.57;;
13432;SDS011;6789;47.678;9.158;2023-03-15T06:50:46;6.57;;;3.70;;
13432;SDS011;6789;47.678;9.158;2023-03-15T06:55:39;6.20;;;3.30;;
13432;SDS011;6789;47.678;9.158;2023-03-15T07:00:30;7.80;;;2.40;;
13432;SDS011;6789;47.678;9.158;2023-03-15T07:05:22;5.07;;;1.60;;
13432;SDS011;6789;47.678;9.158;2023-03-15T07:10:14;6.47;;;2.60;;
13432;SDS011;6789;47.678;9.158;2023-03-15T07:15:07;4.20;;;1.30;;
13432;SDS011;6789;47.678;9.158;2023-03-15T07:20:00;4.37;;;1.47;;
13432;SDS011;6789;47.678;9.158;2023-03-15T07:24:52;3.23;;;1.50;;
13432;SDS011;6789;47.678;9.158;2023-03-15T07:29:44;5.27;;;1.27;;
13432;SDS011;6789;47.678;9.158;2023-03-15T07:34:37;4.77;;;1.10;;
13432;SDS011;6789;47.678;9.158;2023-03-15T07:39:29;2.00;;;1.10;;
13432;SDS011;6789;47.678;9.158;2023-03-15T07:44:23;3.90;;;1.80;;
13432;SDS011;6789;47.678;9.158;2023-03-15T07:49:21;6.97;;;2.73;;
13432;SDS011;6789;47.678;9.158;2023-03-15T07:54:27;4.83;;;1.80;;
13432;SDS011;6789;47.678;9.158;2023-03-15T07:59:21;7.53;;;2.17;;
13432;SDS011;6789;47.678;9.158;2023-03-15T08:04:13;1.87;;;1.20;;
13432;SDS011;6789;47.678;9.158;2023-03-15T08:09:04;3.57;;;1.30;;
13432;SDS011;6789;47.678;9.158;2023-03-15T08:13:56;6.27;;;1.37;;
13432;SDS011;6789;47.678;9.158;2023-03-15T08:18:48;2.13;;;1.37;;
13432;SDS011;6789;47.678;9.158;2023-03-15T08:23:55;3.90;;;1.17;;
13432;SDS011;6789;47.678;9.158;2023-03-15T08:28:47;3.77;;;1.60;;
13432;SDS011;6789;47.678;9.158;2023-03-15T08:33:53;1.73;;;1.00;;
13432;SDS011;6789;47.678;9.158;2023-03-15T08:38:45;2.10;;;0.93;;
13432;SDS011;6789;47.678;9.158;2023-03-15T08:43:40;2.87;;;1.33;;
13432;SDS011;6789;47.678;9.158;2023-03-15T08:48:46;3.17;;;1.27;;
13432;SDS011;6789;47.678;9.158;2023-03-15T08:53:38;2.07;;;1.00;;
13432;SDS011;6789;47.678;9.158;2023-03-15T08:58:31;1.93;;;1.43;;
13432;SDS011;6789;47.678;9.158;2023-03-15T09:03:24;4.63;;;1.30;;
13432;SDS011;6789;47.678;9.158;2023-03-15T09:08:16;3.40;;;1.30;;
13432;SDS011;6789;47.678;9.158;2023-03-15T09:13:11;2.13;;;1.40;;
13432;SDS011;6789;47.678;9.158;2023-03-15T09:18:04;3.10;;;1.43;;
13432;SDS011;6789;47.678;9.158;2023-03-15T09:22:56;2.70;;;1.83;;
13432;SDS011;6789;47.678;9.158;2023-03-15T09:27:49;4.17;;;1.50;;
13432;SDS011;6789;47.678;9.158;2023-03-15T09:32:41;3.53;;;1.20;;
13432;SDS011;6789;47.678;9.158;2023-03-15T09:37:35;2.60;;;1.30;;
13432;SDS011;6789;47.678;9.158;2023-03-15T09:42:31;2.73;;;1.40;;
13432;SDS011;6789;47.678;9.158;2023-03-15T09:52:43;1.70;;;1.00;;
13432;SDS011;6789;47.678;9.158;2023-03-15T09:57:52;1.37;;;1.27;;
13432;SDS011;6789;47.678;9.158;2023-03-15T10:08:50;2.63;;;1.30;;
13432;SDS011;6789;47.678;9.158;2023-03-15T10:14:12;2.63;;;1.30;;
13432;SDS011;6789;47.678;9.158;2023-03-15T10:19:52;3.77;;;1.27;;
13432;SDS011;6789;47.678;9.158;2023-03-15T10:24:56;1.23;;;1.03;;
13432;SDS011;6789;47.678;9.158;2023-03-15T10:30:07;1.93;;;1.20;;
13432;SDS011;6789;47.678;9.158;2023-03-15T10:35:16;1.87;;;1.17;;
13432;SDS011;6789;47.678;9.158;2023-03-15T10:40:11;1.40;;;1.17;;
13432;SDS011;6789;47.678;9.158;2023-03-15T10:50:16;1.17;;;1.00;;
13432;SDS011;6789;47.678;9.158;2023-03-15T11:00:34;2.43;;;1.20;;
13432;SDS011;6789;47.678;9.158;2023-03-15T11:05:31;2.70;;;1.23;;
13432;SDS011;6789;47.678;9.158;2023-03-15T11:10:54;1.73;;;1.00;;
13432;SDS011;6789;47.678;9.158;2023-03-15T11:16:18;3.03;;;1.10;;
13432;SDS011;6789;47.678;9.158;2023-03-15T11:27:43;0.90;;;0.80;;
13432;SDS011;6789;47.678;9.158;2023-03-15T11:32:53;1.57;;;1.00;;
13432;SDS011;6789;47.678;9.158;2023-03-15T11:38:03;1.90;;;1.07;;
13432;SDS011;6789;47.678;9.158;2023-03-15T11:48:33;1.13;;;0.80;;
13432;SDS011;6789;47.678;9.158;2023-03-15T11:53:56;1.37;;;0.90;;
13432;SDS011;6789;47.678;9.158;2023-03-15T11:59:19;0.70;;;0.70;;
13432;SDS011;6789;47.678;9.158;2023-03-15T12:19:24;0.70;;;0.60;;
13432;SDS011;6789;47.678;9.158;2023-03-15T12:24:22;0.93;;;0.50;;
13432;SDS011;6789;47.678;9.158;2023-03-15T12:29:30;0.43;;;0.30;;
13432;SDS011;6789;47.678;9.158;2023-03-15T12:39:50;0.90;;;0.50;;
13432;SDS011;6789;47.678;9.158;2023-03-15T12:50:35;0.40;;;0.30;;
13432;SDS011;6789;47.678;9.158;2023-03-15T12:55:38;0.80;;;0.50;;
13432;SDS011;6789;47.678;9.158;2023-03-15T13:00:42;3.13;;;1.20;;
13432;SDS011;6789;47.678;9.158;2023-03-15T13:11:38;1.43;;;0.60;;
13432;SDS011;6789;47.678;9.158;2023-03-15T13:17:35;1.23;;;0.60;;
13432;SDS011;6789;47.678;9.158;2023-03-15T13:29:00;1.30;;;0.80;;
13432;SDS011;6789;47.678;9.158;2023-03-15T13:34:14;1.97;;;0.60;;
13432;SDS011;6789;47.678;9.158;2023-03-15T13:39:29;5.30;;;1.40;;
13432;SDS011;6789;47.678;9.158;2023-03-15T13:44:38;1.50;;;0.50;;
13432;SDS011;6789;47.678;9.158;2023-03-15T13:49:45;3.33;;;0.83;;
13432;SDS011;6789;47.678;9.158;2023-03-15T13:54:48;0.83;;;0.60;;
13432;SDS011;6789;47.678;9.158;2023-03-15T14:05:18;1.33;;;0.87;;
13432;SDS011;6789;47.678;9.158;2023-03-15T14:10:21;2.43;;;0.60;;
13432;SDS011;6789;47.678;9.158;2023-03-15T14:15:32;2.93;;;1.20;;
13432;SDS011;6789;47.678;9.158;2023-03-15T14:20:39;1.17;;;0.53;;
13432;SDS011;6789;47.678;9.158;2023-03-15T14:25:36;1.10;;;0.50;;
13432;SDS011;6789;47.678;9.158;2023-03-15T14:30:44;2.50;;;0.90;;
13432;SDS011;6789;47.678;9.158;2023-03-15T14:36:04;0.40;;;0.30;;
13432;SDS011;6789;47.678;9.158;2023-03-15T14:46:36;6.27;;;0.90;;
13432;SDS011;6789;47.678;9.158;2023-03-15T14:51:42;4.20;;;0.90;;
13432;SDS011;6789;47.678;9.158;2023-03-15T14:56:48;1.03;;;0.53;;
13432;SDS011;6789;47.678;9.158;2023-03-15T15:01:56;0.93;;;0.63;;
13432;SDS011;6789;47.678;9.158;2023-03-15T15:06:52;1.00;;;0.60;;
13432;SDS011;6789;47.678;9.158;2023-03-15T15:11:46;1.40;;;0.60;;
13432;SDS011;6789;47.678;9.158;2023-03-15T15:16:53;1.40;;;0.40;;
13432;SDS011;6789;47.678;9.158;2023-03-15T15:22:00;1.97;;;0.63;;
13432;SDS011;6789;47.678;9.158;2023-03-15T15:27:08;0.93;;;0.60;;
13432;SDS011;6789;47.678;9.158;2023-03-15T15:32:15;1.60;;;0.60;;
13432;SDS011;6789;47.678;9.158;2023-03-15T15:37:10;3.13;;;0.40;;
13432;SDS011;6789;47.678;9.158;2023-03-15T15:42:05;0.93;;;0.77;;
13432;SDS011;6789;47.678;9.158;2023-03-15T15:47:14;1.47;;;0.40;;
13432;SDS011;6789;47.678;9.158;2023-03-15T15:52:12;0.77;;;0.50;;
13432;SDS011;6789;47.678;9.158;2023-03-15T15:57:08;0.53;;;0.50;;
13432;SDS011;6789;47.678;9.158;2023-03-15T16:02:05;0.20;;;0.20;;
13432;SDS011;6789;47.678;9.158;2023-03-15T16:07:36;1.07;;;0.40;;
13432;SDS011;6789;47.678;9.158;2023-03-15T16:12:52;2.93;;;0.57;;
13432;SDS011;6789;47.678;9.158;2023-03-15T16:17:51;1.13;;;0.60;;
13432;SDS011;6789;47.678;9.158;2023-03-15T16:23:00;1.10;;;0.53;;
13432;SDS011;6789;47.678;9.158;2023-03-15T16:28:07;2.53;;;0.47;;
13432;SDS011;6789;47.678;9.158;2023-03-15T16:33:18;1.10;;;0.30;;
13432;SDS011;6789;47.678;9.158;2023-03-15T16:38:25;0.30;;;0.30;;
13432;SDS011;6789;47.678;9.158;2023-03-15T16:43:36;1.47;;;0.50;;
13432;SDS011;6789;47.678;9.158;2023-03-15T16:48:45;1.63;;;0.40;;
13432;SDS011;6789;47.678;9.158;2023-03-15T16:53:53;0.10;;;0.10;;
13432;SDS011;6789;47.678;9.158;2023-03-15T16:59:05;1.20;;;0.50;;
13432;SDS011;6789;47.678;9.158;2023-03-15T17:03:59;0.27;;;0.27;;
13432;SDS011;6789;47.678;9.158;2023-03-15T17:08:55;1.10;;;0.50;;
13432;SDS011;6789;47.678;9.158;2023-03-15T17:14:17;1.60;;;0.53;;
13432;SDS011;6789;47.678;9.158;2023-03-15T17:19:19;2.87;;;0.80;;
13432;SDS011;6789;47.678;9.158;2023-03-15T17:24:11;1.10;;;0.67;;
13432;SDS011;6789;47.678;9.158;2023-03-15T17:29:04;1.30;;;0.40;;
13432;SDS011;6789;47.678;9.158;2023-03-15T17:34:11;1.97;;;1.03;;
13432;SDS011;6789;47.678;9.158;2023-03-15T17:39:17;4.17;;;1.00;;
13432;SDS011;6789;47.678;9.158;2023-03-15T17:44:10;2.03;;;0.90;;
13432;SDS011;6789;47.678;9.158;2023-03-15T17:49:03;2.53;;;0.80;;
13432;SDS011;6789;47.678;9.158;2023-03-15T17:53:58;1.73;;;0.87;;
13432;SDS011;6789;47.678;9.158;2023-03-15T17:59:08;0.50;;;0.50;;
13432;SDS011;6789;47.678;9.158;2023-03-15T18:04:16;1.37;;;0.17;;
13432;SDS011;6789;47.678;9.158;2023-03-15T18:09:24;1.43;;;0.90;;
13432;SDS011;6789;47.678;9.158;2023-03-15T18:14:31;1.00;;;0.77;;
13432;SDS011;6789;47.678;9.158;2023-03-15T18:19:41;2.80;;;1.70;;
13432;SDS011;6789;47.678;9.158;2023-03-15T18:24:44;1.27;;;0.80;;
13432;SDS011;6789;47.678;9.158;2023-03-15T18:30:09;1.10;;;0.97;;
13432;SDS011;6789;47.678;9.158;2023-03-15T18:35:09;2.57;;;1.10;;
13432;SDS011;6789;47.678;9.158;2023-03-15T18:40:13;2.13;;;1.23;;
13432;SDS011;6789;47.678;9.158;2023-03-15T18:45:26;6.00;;;1.37;;
13432;SDS011;6789;47.678;9.158;2023-03-15T18:50:38;2.40;;;1.40;;
13432;SDS011;6789;47.678;9.158;2023-03-15T18:55:44;2.00;;;1.20;;
13432;SDS011;6789;47.678;9.158;2023-03-15T19:00:38;3.83;;;2.17;;
13432;SDS011;6789;47.678;9.158;2023-03-15T19:05:32;2.67;;;2.03;;
13432;SDS011;6789;47.678;9.158;2023-03-15T19:10:26;4.67;;;2.03;;
13432;SDS011;6789;47.678;9.158;2023-03-15T19:15:19;4.57;;;2.50;;
13432;SDS011;6789;47.678;9.158;2023-03-15T19:20:12;3.87;;;2.27;;
13432;SDS011;6789;47.678;9.158;2023-03-15T19:25:08;5.50;;;2.13;;
13432;SDS011;6789;47.678;9.158;2023-03-15T19:30:04;5.13;;;2.40;;
13432;SDS011;6789;47.678;9.158;2023-03-15T19:34:59;2.97;;;2.37;;
13432;SDS011;6789;47.678;9.158;2023-03-15T19:39:54;6.13;;;2.47;;
13432;SDS011;6789;47.678;9.158;2023-03-15T19:44:46;6.50;;;2.43;;
13432;SDS011;6789;47.678;9.158;2023-03-15T19:49:39;15.90;;;5.20;;
13432;SDS011;6789;47.678;9.158;2023-03-15T19:54:31;5.13;;;3.47;;
13432;SDS011;6789;47.678;9.158;2023-03-15T19:59:24;6.23;;;3.30;;
13432;SDS011;6789;47.678;9.158;2023-03-15T20:04:16;6.37;;;3.63;;
13432;SDS011;6789;47.678;9.158;2023-03-15T20:09:08;5.17;;;2.90;;
13432;SDS011;6789;47.678;9.158;2023-03-15T20:14:01;5.20;;;3.23;;
13432;SDS011;6789;47.678;9.158;2023-03-15T20:18:54;9.07;;;3.00;;
13432;SDS011;6789;47.678;9.158;2023-03-15T20:23:47;5.50;;;3.00;;
13432;SDS011;6789;47.678;9.158;2023-03-15T20:28:44;6.57;;;4.10;;
13432;SDS011;6789;47.678;9.158;2023-03-15T20:33:37;3.97;;;1.90;;
13432;SDS011;6789;47.678;9.158;2023-03-15T20:38:29;8.10;;;3.10;;
13432;SDS011;6789;47.678;9.158;2023-03-15T20:43:31;5.23;;;3.07;;
13432;SDS011;6789;47.678;9.158;2023-03-15T20:48:28;3.23;;;1.33;;
13432;SDS011;6789;47.678;9.158;2023-03-15T20:53:25;5.87;;;2.10;;
13432;SDS011;6789;47.678;9.158;2023-03-15T20:58:30;1.97;;;1.50;;
13432;SDS011;6789;47.678;9.158;2023-03-15T21:03:22;6.63;;;2.67;;
13432;SDS011;6789;47.678;9.158;2023-03-15T21:08:15;3.57;;;2.27;;
13432;SDS011;6789;47.678;9.158;2023-03-15T21:13:07;5.27;;;2.80;;
13432;SDS011;6789;47.678;9.158;2023-03-15T21:18:16;5.57;;;2.80;;
13432;SDS011;6789;47.678;9.158;2023-03-15T21:23:16;6.43;;;2.70;;
13432;SDS011;6789;47.678;9.158;2023-03-15T21:28:10;4.27;;;2.60;;
13432;SDS011;6789;47.678;9.158;2023-03-15T21:33:02;3.97;;;2.23;;
13432;SDS011;6789;47.678;9.158;2023-03-15T21:37:55;6.33;;;2.50;;
13432;SDS011;6789;47.678;9.158;2023-03-15T21:42:48;4.97;;;2.47;;
13432;SDS011;6789;47.678;9.158;2023-03-15T21:47:40;5.83;;;3.10;;
13432;SDS011;6789;47.678;9.158;2023-03-15T21:52:37;8.77;;;3.80;;
13432;SDS011;6789;47.678;9.158;2023-03-15T21:57:29;6.77;;;3.27;;
13432;SDS011;6789;47.678;9.158;2023-03-15T22:02:23;10.47;;;3.30;;
13432;SDS011;6789;47.678;9.158;2023-03-15T22:07:31;6.47;;;2.83;;
13432;SDS011;6789;47.678;9.158;2023-03-15T22:12:25;5.80;;;3.17;;
13432;SDS011;6789;47.678;9.158;2023-03-15T22:17:34;6.70;;;3.20;;
13432;SDS011;6789;47.678;9.158;2023-03-15T22:22:56;9.23;;;3.50;;
13432;SDS011;6789;47.678;9.158;2023-03-15T22:27:51;3.30;;;1.97;;
13432;SDS011;6789;47.678;9.158;2023-03-15T22:32:43;7.00;;;2.60;;
13432;SDS011;6789;47.678;9.158;2023-03-15T22:37:36;4.47;;;2.40;;
13432;SDS011;6789;47.678;9.158;2023-03-15T22:42:28;5.10;;;2.53;;
13432;SDS011;6789;47.678;9.158;2023-03-15T22:47:20;4.87;;;2.00;;
13432;SDS011;6789;47.678;9.158;2023-03-15T22:52:11;3.93;;;2.30;;
13432;SDS011;6789;47.678;9.158;2023-03-15T22:57:03;5.07;;;2.73;;
13432;SDS011;6789;47.678;9.158;2023-03-15T23:01:55;4.20;;;2.70;;
13432;SDS011;6789;47.678;9.158;2023-03-15T23:06:47;5.80;;;3.60;;
13432;SDS011;6789;47.678;9.158;2023-03-15T23:11:40;6.33;;;3.27;;
13432;SDS011;6789;47.678;9.158;2023-03-15T23:16:32;13.37;;;4.67;;
13432;SDS011;6789;47.678;9.158;2023-03-15T23:21:24;10.23;;;4.10;;
13432;SDS011;6789;47.678;9.158;2023-03-15T23:26:30;10.03;;;3.47;;
13432;SDS011;6789;47.678;9.158;2023-03-15T23:31:42;7.87;;;3.13;;
13432;SDS011;6789;47.678;9.158;2023-03-15T23:36:48;7.37;;;3.90;;
13432;SDS011;6789;47.678;9.158;2023-03-15T23:41:45;8.87;;;4.60;;
13432;SDS011;6789;47.678;9.158;2023-03-15T23:46:40;9.07;;;3.53;;
13432;SDS011;6789;47.678;9.158;2023-03-15T23:51:54;4.57;;;2.63;;
13432;SDS011;6789;47.678;9.158;2023-03-15T23:56:50;6.07;;;2.50;;
